sensor_id;sensor_type;location;lat;lon;timestamp;pressure;altitude;pressure_sealevel;temperature;humidity
77537;BME280;67783;51.656;16.106;2023-04-25T00:02:33;100746.88;;;12.06;57.39
77537;BME280;67783;51.656;16.106;2023-04-25T00:05:38;100754.33;;;12.02;57.65
77537;BME280;67783;51.656;16.106;2023-04-25T00:08:40;100755.43;;;11.99;57.44
77537;BME280;67783;51.656;16.106;2023-04-25T00:11:41;100758.36;;;11.96;57.58
77537;BME280;67783;51.656;16.106;2023-04-25T00:14:43;100753.09;;;11.95;57.50
77537;BME280;67783;51.656;16.106;2023-04-25T00:17:47;100747.98;;;11.92;57.46
77537;BME280;67783;51.656;16.106;2023-04-25T00:20:58;100751.86;;;11.88;58.00
77537;BME280;67783;51.656;16.106;2023-04-25T00:24:00;100752.73;;;11.88;57.65
77537;BME280;67783;51.656;16.106;2023-04-25T00:27:02;100747.47;;;11.87;57.77
77537;BME280;67783;51.656;16.106;2023-04-25T00:30:05;100759.29;;;11.84;57.70
77537;BME280;67783;51.656;16.106;2023-04-25T00:33:07;100754.16;;;11.81;57.84
77537;BME280;67783;51.656;16.106;2023-04-25T00:36:19;100753.44;;;11.79;58.45
77537;BME280;67783;51.656;16.106;2023-04-25T00:39:21;100744.52;;;11.79;57.89
77537;BME280;67783;51.656;16.106;2023-04-25T00:42:22;100757.33;;;11.75;58.11
77537;BME280;67783;51.656;16.106;2023-04-25T00:45:28;100758.30;;;11.74;57.88
77537;BME280;67783;51.656;16.106;2023-04-25T00:48:30;100755.20;;;11.68;58.04
77537;BME280;67783;51.656;16.106;2023-04-25T00:51:40;100752.73;;;11.65;58.25
77537;BME280;67783;51.656;16.106;2023-04-25T00:54:41;100752.87;;;11.63;57.98
77537;BME280;67783;51.656;16.106;2023-04-25T00:57:43;100755.90;;;11.58;58.18
77537;BME280;67783;51.656;16.106;2023-04-25T01:00:46;100767.70;;;11.56;58.08
77537;BME280;67783;51.656;16.106;2023-04-25T01:03:49;100760.14;;;11.50;58.37
77537;BME280;67783;51.656;16.106;2023-04-25T01:07:00;100763.27;;;11.44;59.16
77537;BME280;67783;51.656;16.106;2023-04-25T01:10:05;100762.76;;;11.39;58.74
77537;BME280;67783;51.656;16.106;2023-04-25T01:13:07;100758.83;;;11.32;58.96
77537;BME280;67783;51.656;16.106;2023-04-25T01:16:09;100760.88;;;11.28;58.77
77537;BME280;67783;51.656;16.106;2023-04-25T01:19:11;100759.30;;;11.26;58.99
77537;BME280;67783;51.656;16.106;2023-04-25T01:22:21;100758.68;;;11.22;59.85
77537;BME280;67783;51.656;16.106;2023-04-25T01:25:23;100751.59;;;11.21;59.00
77537;BME280;67783;51.656;16.106;2023-04-25T01:28:25;100753.52;;;11.19;59.46
77537;BME280;67783;51.656;16.106;2023-04-25T01:31:27;100757.82;;;11.22;59.02
77537;BME280;67783;51.656;16.106;2023-04-25T01:34:30;100761.47;;;11.21;59.19
77537;BME280;67783;51.656;16.106;2023-04-25T01:37:42;100759.98;;;11.17;60.25
77537;BME280;67783;51.656;16.106;2023-04-25T01:40:45;100757.30;;;11.17;59.20
77537;BME280;67783;51.656;16.106;2023-04-25T01:43:50;100757.40;;;11.15;59.39
77537;BME280;67783;51.656;16.106;2023-04-25T01:46:52;100765.59;;;11.14;59.23
77537;BME280;67783;51.656;16.106;2023-04-25T01:49:53;100763.87;;;11.13;59.51
77537;BME280;67783;51.656;16.106;2023-04-25T01:53:02;100768.71;;;11.07;60.54
77537;BME280;67783;51.656;16.106;2023-04-25T01:56:05;100758.95;;;11.06;59.39
77537;BME280;67783;51.656;16.106;2023-04-25T01:59:07;100758.65;;;10.98;59.90
77537;BME280;67783;51.656;16.106;2023-04-25T02:02:08;100759.60;;;10.97;59.51
77537;BME280;67783;51.656;16.106;2023-04-25T02:05:10;100758.12;;;10.93;59.64
77537;BME280;67783;51.656;16.106;2023-04-25T02:08:11;100753.95;;;10.89;59.58
77537;BME280;67783;51.656;16.106;2023-04-25T02:11:13;100755.38;;;10.82;59.66
77537;BME280;67783;51.656;16.106;2023-04-25T02:14:18;100761.20;;;10.76;60.48
77537;BME280;67783;51.656;16.106;2023-04-25T02:17:20;100761.20;;;10.76;59.75
77537;BME280;67783;51.656;16.106;2023-04-25T02:20:24;100759.71;;;10.72;59.99
77537;BME280;67783;51.656;16.106;2023-04-25T02:23:26;100762.40;;;10.72;59.74
77537;BME280;67783;51.656;16.106;2023-04-25T02:26:28;100756.51;;;10.67;59.98
77537;BME280;67783;51.656;16.106;2023-04-25T02:29:39;100765.74;;;10.63;60.90
77537;BME280;67783;51.656;16.106;2023-04-25T02:32:40;100766.79;;;10.60;59.91
77537;BME280;67783;51.656;16.106;2023-04-25T02:35:42;100775.06;;;10.57;60.25
77537;BME280;67783;51.656;16.106;2023-04-25T02:38:43;100753.97;;;10.40;59.88
77537;BME280;67783;51.656;16.106;2023-04-25T02:41:45;100771.98;;;10.51;60.20
77537;BME280;67783;51.656;16.106;2023-04-25T02:44:47;100773.90;;;10.49;59.93
77537;BME280;67783;51.656;16.106;2023-04-25T02:47:48;100774.13;;;10.46;60.10
77537;BME280;67783;51.656;16.106;2023-04-25T02:50:53;100775.08;;;10.45;60.95
77537;BME280;67783;51.656;16.106;2023-04-25T02:53:55;100772.63;;;10.42;60.09
77537;BME280;67783;51.656;16.106;2023-04-25T02:56:57;100775.63;;;10.37;60.49
77537;BME280;67783;51.656;16.106;2023-04-25T02:59:58;100770.37;;;10.36;60.13
77537;BME280;67783;51.656;16.106;2023-04-25T03:03:00;100767.91;;;10.33;60.31
77537;BME280;67783;51.656;16.106;2023-04-25T03:06:01;100763.52;;;10.32;60.18
77537;BME280;67783;51.656;16.106;2023-04-25T03:09:03;100758.38;;;10.29;60.39
77537;BME280;67783;51.656;16.106;2023-04-25T03:12:08;100775.63;;;10.25;61.37
77537;BME280;67783;51.656;16.106;2023-04-25T03:15:10;100771.13;;;10.25;60.44
77537;BME280;67783;51.656;16.106;2023-04-25T03:18:12;100772.09;;;10.24;60.76
77537;BME280;67783;51.656;16.106;2023-04-25T03:21:13;100769.41;;;10.24;60.33
77537;BME280;67783;51.656;16.106;2023-04-25T03:24:15;100763.52;;;10.19;60.56
77537;BME280;67783;51.656;16.106;2023-04-25T03:27:17;100764.79;;;10.13;60.46
77537;BME280;67783;51.656;16.106;2023-04-25T03:30:19;100759.84;;;10.07;60.66
77537;BME280;67783;51.656;16.106;2023-04-25T03:33:24;100762.98;;;10.01;61.26
77537;BME280;67783;51.656;16.106;2023-04-25T03:36:25;100766.83;;;9.97;60.82
77537;BME280;67783;51.656;16.106;2023-04-25T03:39:27;100776.13;;;9.92;61.20
77537;BME280;67783;51.656;16.106;2023-04-25T03:42:28;100769.18;;;9.89;60.91
77537;BME280;67783;51.656;16.106;2023-04-25T03:45:30;100770.35;;;9.85;61.15
77537;BME280;67783;51.656;16.106;2023-04-25T03:48:32;100772.17;;;9.85;60.98
77537;BME280;67783;51.656;16.106;2023-04-25T03:51:33;100775.80;;;9.84;61.11
77537;BME280;67783;51.656;16.106;2023-04-25T03:54:41;100771.52;;;9.81;62.12
77537;BME280;67783;51.656;16.106;2023-04-25T03:57:42;100773.22;;;9.82;61.00
77537;BME280;67783;51.656;16.106;2023-04-25T04:00:45;100775.16;;;9.80;61.24
77537;BME280;67783;51.656;16.106;2023-04-25T04:03:46;100778.70;;;9.81;61.25
77537;BME280;67783;51.656;16.106;2023-04-25T04:06:48;100777.07;;;9.78;61.18
77537;BME280;67783;51.656;16.106;2023-04-25T04:09:59;100782.42;;;9.78;61.54
77537;BME280;67783;51.656;16.106;2023-04-25T04:13:00;100774.39;;;9.78;61.03
77537;BME280;67783;51.656;16.106;2023-04-25T04:16:02;100781.55;;;9.78;61.41
77537;BME280;67783;51.656;16.106;2023-04-25T04:19:05;100794.85;;;9.79;60.97
77537;BME280;67783;51.656;16.106;2023-04-25T04:22:07;100783.28;;;9.79;61.18
77537;BME280;67783;51.656;16.106;2023-04-25T04:25:08;100794.46;;;9.85;60.94
77537;BME280;67783;51.656;16.106;2023-04-25T04:28:12;100797.87;;;9.87;60.94
77537;BME280;67783;51.656;16.106;2023-04-25T04:31:17;100788.88;;;9.88;61.49
77537;BME280;67783;51.656;16.106;2023-04-25T04:34:20;100791.55;;;9.88;60.91
77537;BME280;67783;51.656;16.106;2023-04-25T04:37:22;100791.24;;;9.93;61.00
77537;BME280;67783;51.656;16.106;2023-04-25T04:40:24;100793.60;;;9.97;60.74
77537;BME280;67783;51.656;16.106;2023-04-25T04:43:26;100783.54;;;10.01;60.85
77537;BME280;67783;51.656;16.106;2023-04-25T04:46:38;100792.21;;;10.04;61.04
77537;BME280;67783;51.656;16.106;2023-04-25T04:49:43;100787.59;;;10.06;60.60
77537;BME280;67783;51.656;16.106;2023-04-25T04:52:45;100801.20;;;10.03;60.77
77537;BME280;67783;51.656;16.106;2023-04-25T04:55:47;100792.53;;;10.00;60.74
77537;BME280;67783;51.656;16.106;2023-04-25T04:58:48;100790.16;;;9.95;60.91
77537;BME280;67783;51.656;16.106;2023-04-25T05:01:58;100777.73;;;9.94;61.28
77537;BME280;67783;51.656;16.106;2023-04-25T05:05:00;100794.78;;;9.93;60.81
77537;BME280;67783;51.656;16.106;2023-04-25T05:08:01;100790.16;;;9.95;60.95
77537;BME280;67783;51.656;16.106;2023-04-25T05:11:03;100798.74;;;10.00;60.70
77537;BME280;67783;51.656;16.106;2023-04-25T05:14:05;100798.52;;;10.03;60.82
77537;BME280;67783;51.656;16.106;2023-04-25T05:17:06;100798.12;;;10.09;60.58
77537;BME280;67783;51.656;16.106;2023-04-25T05:20:10;100793.40;;;10.13;60.65
77537;BME280;67783;51.656;16.106;2023-04-25T05:23:14;100792.16;;;10.18;61.04
77537;BME280;67783;51.656;16.106;2023-04-25T05:26:17;100786.98;;;10.28;60.39
77537;BME280;67783;51.656;16.106;2023-04-25T05:29:18;100788.39;;;10.34;60.44
77537;BME280;67783;51.656;16.106;2023-04-25T05:32:20;100774.35;;;10.43;60.18
77537;BME280;67783;51.656;16.106;2023-04-25T05:35:21;100781.71;;;10.52;60.09
77537;BME280;67783;51.656;16.106;2023-04-25T05:38:23;100779.01;;;10.64;59.79
77537;BME280;67783;51.656;16.106;2023-04-25T05:41:24;100786.29;;;10.75;59.65
77537;BME280;67783;51.656;16.106;2023-04-25T05:44:30;100786.37;;;10.86;59.36
77537;BME280;67783;51.656;16.106;2023-04-25T05:47:32;100792.02;;;10.94;59.25
77537;BME280;67783;51.656;16.106;2023-04-25T05:50:34;100787.29;;;10.98;59.12
77537;BME280;67783;51.656;16.106;2023-04-25T05:53:36;100790.51;;;11.03;59.05
77537;BME280;67783;51.656;16.106;2023-04-25T05:56:37;100787.48;;;11.07;58.92
77537;BME280;67783;51.656;16.106;2023-04-25T05:59:39;100791.31;;;11.16;58.89
77537;BME280;67783;51.656;16.106;2023-04-25T06:02:40;100794.19;;;11.26;58.66
77537;BME280;67783;51.656;16.106;2023-04-25T06:05:45;100792.52;;;11.36;58.20
77537;BME280;67783;51.656;16.106;2023-04-25T06:08:47;100790.87;;;11.46;58.31
77537;BME280;67783;51.656;16.106;2023-04-25T06:11:48;100780.13;;;11.46;57.78
77537;BME280;67783;51.656;16.106;2023-04-25T06:14:50;100802.89;;;11.64;57.73
77537;BME280;67783;51.656;16.106;2023-04-25T06:17:51;100798.17;;;11.68;57.66
77537;BME280;67783;51.656;16.106;2023-04-25T06:20:53;100796.75;;;11.75;57.50
77537;BME280;67783;51.656;16.106;2023-04-25T06:23:54;100792.98;;;11.77;57.47
77537;BME280;67783;51.656;16.106;2023-04-25T06:27:00;100793.72;;;11.79;56.73
77537;BME280;67783;51.656;16.106;2023-04-25T06:30:01;100799.57;;;11.84;57.48
77537;BME280;67783;51.656;16.106;2023-04-25T06:33:05;100795.05;;;11.85;57.29
77537;BME280;67783;51.656;16.106;2023-04-25T06:36:07;100791.31;;;11.87;57.49
77537;BME280;67783;51.656;16.106;2023-04-25T06:39:08;100796.54;;;11.89;57.23
77537;BME280;67783;51.656;16.106;2023-04-25T06:42:20;100792.29;;;11.97;56.71
77537;BME280;67783;51.656;16.106;2023-04-25T06:45:22;100801.37;;;12.08;57.02
77537;BME280;67783;51.656;16.106;2023-04-25T06:48:23;100800.66;;;12.17;56.59
77537;BME280;67783;51.656;16.106;2023-04-25T06:51:26;100798.84;;;12.28;56.77
77537;BME280;67783;51.656;16.106;2023-04-25T06:54:31;100794.22;;;12.41;56.50
77537;BME280;67783;51.656;16.106;2023-04-25T06:57:41;100791.27;;;12.56;55.62
77537;BME280;67783;51.656;16.106;2023-04-25T07:00:42;100792.61;;;12.72;56.20
77537;BME280;67783;51.656;16.106;2023-04-25T07:03:44;100790.16;;;12.80;55.58
77537;BME280;67783;51.656;16.106;2023-04-25T07:06:46;100783.55;;;12.95;55.60
77537;BME280;67783;51.656;16.106;2023-04-25T07:09:50;100786.21;;;13.07;55.24
77537;BME280;67783;51.656;16.106;2023-04-25T07:13:02;100786.35;;;13.16;53.22
77537;BME280;67783;51.656;16.106;2023-04-25T07:16:04;100786.91;;;13.31;54.79
77537;BME280;67783;51.656;16.106;2023-04-25T07:19:06;100791.66;;;13.38;52.99
77537;BME280;67783;51.656;16.106;2023-04-25T07:22:07;100780.51;;;13.43;54.11
77537;BME280;67783;51.656;16.106;2023-04-25T07:25:09;100781.37;;;13.44;53.85
77537;BME280;67783;51.656;16.106;2023-04-25T07:28:11;100776.10;;;13.42;54.07
77537;BME280;67783;51.656;16.106;2023-04-25T07:31:13;100785.30;;;13.39;53.91
77537;BME280;67783;51.656;16.106;2023-04-25T07:34:18;100787.51;;;13.34;52.18
77537;BME280;67783;51.656;16.106;2023-04-25T07:37:20;100787.88;;;13.30;53.92
77537;BME280;67783;51.656;16.106;2023-04-25T07:40:21;100789.34;;;13.34;53.50
77537;BME280;67783;51.656;16.106;2023-04-25T07:43:23;100788.32;;;13.46;53.87
77537;BME280;67783;51.656;16.106;2023-04-25T07:46:25;100787.92;;;13.62;53.29
77537;BME280;67783;51.656;16.106;2023-04-25T07:49:26;100785.76;;;13.76;52.99
77537;BME280;67783;51.656;16.106;2023-04-25T07:52:28;100787.55;;;13.87;52.86
77537;BME280;67783;51.656;16.106;2023-04-25T07:55:33;100775.84;;;13.98;52.07
77537;BME280;67783;51.656;16.106;2023-04-25T07:58:34;100774.27;;;14.16;52.53
77537;BME280;67783;51.656;16.106;2023-04-25T08:01:36;100778.33;;;14.31;51.78
77537;BME280;67783;51.656;16.106;2023-04-25T08:04:38;100784.05;;;14.38;51.89
77537;BME280;67783;51.656;16.106;2023-04-25T08:07:40;100785.90;;;14.37;51.33
77537;BME280;67783;51.656;16.106;2023-04-25T08:10:42;100783.95;;;14.39;51.75
77537;BME280;67783;51.656;16.106;2023-04-25T08:13:44;100778.26;;;14.42;51.32
77537;BME280;67783;51.656;16.106;2023-04-25T08:16:49;100779.02;;;14.54;49.43
77537;BME280;67783;51.656;16.106;2023-04-25T08:19:50;100780.64;;;14.66;51.02
77537;BME280;67783;51.656;16.106;2023-04-25T08:22:52;100773.55;;;14.65;50.34
77537;BME280;67783;51.656;16.106;2023-04-25T08:25:54;100786.64;;;14.69;50.64
77537;BME280;67783;51.656;16.106;2023-04-25T08:28:55;100790.91;;;14.72;49.90
77537;BME280;67783;51.656;16.106;2023-04-25T08:31:57;100784.98;;;14.88;50.25
77537;BME280;67783;51.656;16.106;2023-04-25T08:34:58;100793.57;;;15.02;49.59
77537;BME280;67783;51.656;16.106;2023-04-25T08:38:03;100789.77;;;15.14;46.74
77537;BME280;67783;51.656;16.106;2023-04-25T08:41:06;100793.32;;;15.24;48.86
77537;BME280;67783;51.656;16.106;2023-04-25T08:44:10;100793.89;;;15.28;48.34
77537;BME280;67783;51.656;16.106;2023-04-25T08:47:12;100796.88;;;15.25;48.91
77537;BME280;67783;51.656;16.106;2023-04-25T08:50:14;100800.16;;;15.19;47.80
77537;BME280;67783;51.656;16.106;2023-04-25T08:53:30;100798.84;;;15.13;46.02
77537;BME280;67783;51.656;16.106;2023-04-25T08:56:32;100803.39;;;15.13;49.00
77537;BME280;67783;51.656;16.106;2023-04-25T08:59:36;100809.24;;;15.18;48.72
77537;BME280;67783;51.656;16.106;2023-04-25T09:02:51;100808.83;;;15.22;45.52
77537;BME280;67783;51.656;16.106;2023-04-25T09:05:54;100808.41;;;15.27;48.33
77537;BME280;67783;51.656;16.106;2023-04-25T09:09:03;100811.40;;;15.34;47.35
77537;BME280;67783;51.656;16.106;2023-04-25T09:12:06;100815.84;;;15.44;48.11
77537;BME280;67783;51.656;16.106;2023-04-25T09:15:12;100820.30;;;15.64;47.67
77537;BME280;67783;51.656;16.106;2023-04-25T09:21:27;100819.44;;;15.93;47.30
77537;BME280;67783;51.656;16.106;2023-04-25T09:27:50;100819.28;;;16.04;44.10
77537;BME280;67783;51.656;16.106;2023-04-25T09:30:57;100822.28;;;16.10;46.90
77537;BME280;67783;51.656;16.106;2023-04-25T09:33:59;100827.83;;;16.09;46.23
77537;BME280;67783;51.656;16.106;2023-04-25T09:37:05;100821.98;;;16.04;44.94
77537;BME280;67783;51.656;16.106;2023-04-25T09:40:08;100818.98;;;16.07;45.89
77537;BME280;67783;51.656;16.106;2023-04-25T09:46:35;100821.26;;;16.21;42.64
77537;BME280;67783;51.656;16.106;2023-04-25T09:49:41;100826.80;;;16.29;45.33
77537;BME280;67783;51.656;16.106;2023-04-25T09:52:46;100820.95;;;16.24;44.74
77537;BME280;67783;51.656;16.106;2023-04-25T09:56:00;100823.53;;;16.16;43.10
77537;BME280;67783;51.656;16.106;2023-04-25T09:59:04;100831.38;;;16.09;45.88
77537;BME280;67783;51.656;16.106;2023-04-25T10:02:08;100827.10;;;16.07;45.46
77537;BME280;67783;51.656;16.106;2023-04-25T10:05:10;100829.54;;;16.10;45.83
77537;BME280;67783;51.656;16.106;2023-04-25T10:08:13;100835.80;;;16.10;45.45
77537;BME280;67783;51.656;16.106;2023-04-25T10:11:20;100833.52;;;16.06;43.66
77537;BME280;67783;51.656;16.106;2023-04-25T10:14:24;100832.38;;;15.99;45.80
77537;BME280;67783;51.656;16.106;2023-04-25T10:17:26;100828.55;;;16.01;45.26
77537;BME280;67783;51.656;16.106;2023-04-25T10:20:29;100824.39;;;16.16;45.63
77537;BME280;67783;51.656;16.106;2023-04-25T10:23:32;100830.52;;;16.19;44.61
77537;BME280;67783;51.656;16.106;2023-04-25T10:26:40;100830.95;;;16.14;43.40
77537;BME280;67783;51.656;16.106;2023-04-25T10:29:41;100834.95;;;16.10;45.06
77537;BME280;67783;51.656;16.106;2023-04-25T10:32:45;100835.51;;;16.04;44.62
77537;BME280;67783;51.656;16.106;2023-04-25T10:35:50;100829.53;;;16.00;45.33
77537;BME280;67783;51.656;16.106;2023-04-25T10:38:52;100840.05;;;16.03;45.03
77537;BME280;67783;51.656;16.106;2023-04-25T10:42:02;100830.83;;;16.06;43.11
77537;BME280;67783;51.656;16.106;2023-04-25T10:45:08;100830.10;;;16.04;44.60
77537;BME280;67783;51.656;16.106;2023-04-25T10:51:32;100828.25;;;16.14;41.47
77537;BME280;67783;51.656;16.106;2023-04-25T10:54:34;100829.92;;;16.34;44.04
77537;BME280;67783;51.656;16.106;2023-04-25T10:57:44;100822.91;;;16.51;43.06
77537;BME280;67783;51.656;16.106;2023-04-25T11:00:53;100826.73;;;16.68;41.09
77537;BME280;67783;51.656;16.106;2023-04-25T11:03:58;100818.52;;;16.87;43.28
77537;BME280;67783;51.656;16.106;2023-04-25T11:07:10;100818.59;;;17.04;42.40
77537;BME280;67783;51.656;16.106;2023-04-25T11:10:19;100822.45;;;17.29;39.17
77537;BME280;67783;51.656;16.106;2023-04-25T11:13:21;100819.31;;;17.51;42.03
77537;BME280;67783;51.656;16.106;2023-04-25T11:16:24;100813.90;;;17.51;40.50
77537;BME280;67783;51.656;16.106;2023-04-25T11:19:27;100819.60;;;17.48;42.35
77537;BME280;67783;51.656;16.106;2023-04-25T11:22:30;100784.73;;;17.18;42.23
77537;BME280;67783;51.656;16.106;2023-04-25T11:25:40;100824.06;;;17.22;39.40
77537;BME280;67783;51.656;16.106;2023-04-25T11:28:45;100835.84;;;17.03;41.93
77537;BME280;67783;51.656;16.106;2023-04-25T11:31:47;100829.36;;;16.87;41.89
77537;BME280;67783;51.656;16.106;2023-04-25T11:34:49;100836.07;;;16.83;41.46
77537;BME280;67783;51.656;16.106;2023-04-25T11:37:51;100843.12;;;16.66;41.61
77537;BME280;67783;51.656;16.106;2023-04-25T11:41:00;100846.83;;;16.55;39.76
77537;BME280;67783;51.656;16.106;2023-04-25T11:44:03;100841.85;;;16.51;42.22
77537;BME280;67783;51.656;16.106;2023-04-25T11:47:05;100838.28;;;16.50;41.75
77537;BME280;67783;51.656;16.106;2023-04-25T11:50:08;100845.97;;;16.55;42.68
77537;BME280;67783;51.656;16.106;2023-04-25T11:53:10;100838.58;;;16.57;41.94
77537;BME280;67783;51.656;16.106;2023-04-25T11:56:22;100838.55;;;16.67;40.39
77537;BME280;67783;51.656;16.106;2023-04-25T11:59:24;100841.67;;;16.72;42.56
77537;BME280;67783;51.656;16.106;2023-04-25T12:02:27;100836.26;;;16.72;42.05
77537;BME280;67783;51.656;16.106;2023-04-25T12:05:30;100849.09;;;16.70;42.58
77537;BME280;67783;51.656;16.106;2023-04-25T12:08:34;100846.80;;;16.65;42.36
77537;BME280;67783;51.656;16.106;2023-04-25T12:11:46;100851.41;;;16.65;41.23
77537;BME280;67783;51.656;16.106;2023-04-25T12:14:48;100852.80;;;16.69;42.72
77537;BME280;67783;51.656;16.106;2023-04-25T12:17:52;100858.23;;;16.69;42.24
77537;BME280;67783;51.656;16.106;2023-04-25T12:20:55;100851.52;;;16.73;42.59
77537;BME280;67783;51.656;16.106;2023-04-25T12:27:10;100859.22;;;16.68;41.51
77537;BME280;67783;51.656;16.106;2023-04-25T12:30:12;100857.50;;;16.67;42.47
77537;BME280;67783;51.656;16.106;2023-04-25T12:33:14;100855.67;;;16.57;42.03
77537;BME280;67783;51.656;16.106;2023-04-25T12:36:17;100865.90;;;16.54;42.29
77537;BME280;67783;51.656;16.106;2023-04-25T12:39:20;100853.41;;;16.43;41.83
77537;BME280;67783;51.656;16.106;2023-04-25T12:42:25;100861.95;;;16.39;40.60
77537;BME280;67783;51.656;16.106;2023-04-25T12:45:27;100871.63;;;16.41;42.33
77537;BME280;67783;51.656;16.106;2023-04-25T12:48:28;100864.23;;;16.43;41.63
77537;BME280;67783;51.656;16.106;2023-04-25T12:51:30;100861.92;;;16.48;41.90
77537;BME280;67783;51.656;16.106;2023-04-25T12:54:33;100873.60;;;16.49;42.02
77537;BME280;67783;51.656;16.106;2023-04-25T12:57:44;100876.17;;;16.50;40.72
77537;BME280;67783;51.656;16.106;2023-04-25T13:00:46;100875.88;;;16.53;42.10
77537;BME280;67783;51.656;16.106;2023-04-25T13:03:49;100877.89;;;16.51;41.20
77537;BME280;67783;51.656;16.106;2023-04-25T13:06:51;100883.30;;;16.51;41.96
77537;BME280;67783;51.656;16.106;2023-04-25T13:09:53;100886.01;;;16.51;41.83
77537;BME280;67783;51.656;16.106;2023-04-25T13:13:04;100886.40;;;16.56;40.53
77537;BME280;67783;51.656;16.106;2023-04-25T13:16:07;100889.98;;;16.67;42.15
77537;BME280;67783;51.656;16.106;2023-04-25T13:19:10;100890.71;;;16.69;41.88
77537;BME280;67783;51.656;16.106;2023-04-25T13:22:12;100891.53;;;16.69;42.25
77537;BME280;67783;51.656;16.106;2023-04-25T13:25:17;100892.99;;;16.64;42.34
77537;BME280;67783;51.656;16.106;2023-04-25T13:28:28;100900.82;;;16.47;42.80
77537;BME280;67783;51.656;16.106;2023-04-25T13:31:30;100923.18;;;16.11;44.13
77537;BME280;67783;51.656;16.106;2023-04-25T13:34:32;100924.71;;;15.75;45.69
77537;BME280;67783;51.656;16.106;2023-04-25T13:37:34;100954.61;;;15.43;46.27
77537;BME280;67783;51.656;16.106;2023-04-25T13:40:36;100952.89;;;15.12;47.60
77537;BME280;67783;51.656;16.106;2023-04-25T13:43:46;100947.48;;;14.82;51.41
77537;BME280;67783;51.656;16.106;2023-04-25T13:46:48;100950.77;;;14.64;48.48
77537;BME280;67783;51.656;16.106;2023-04-25T13:49:50;100955.43;;;14.42;50.13
77537;BME280;67783;51.656;16.106;2023-04-25T13:52:51;100962.68;;;14.30;49.16
77537;BME280;67783;51.656;16.106;2023-04-25T13:55:53;100958.32;;;14.18;49.93
77537;BME280;67783;51.656;16.106;2023-04-25T13:58:54;100955.04;;;14.14;49.66
77537;BME280;67783;51.656;16.106;2023-04-25T14:01:58;100960.53;;;14.13;50.50
77537;BME280;67783;51.656;16.106;2023-04-25T14:05:03;100957.34;;;14.19;53.61
77537;BME280;67783;51.656;16.106;2023-04-25T14:08:09;100947.25;;;14.32;50.39
77537;BME280;67783;51.656;16.106;2023-04-25T14:11:11;100953.35;;;14.45;50.93
77537;BME280;67783;51.656;16.106;2023-04-25T14:14:13;100956.45;;;14.61;50.30
77537;BME280;67783;51.656;16.106;2023-04-25T14:17:17;100956.84;;;14.77;50.62
77537;BME280;67783;51.656;16.106;2023-04-25T14:20:23;100962.03;;;14.90;52.41
77537;BME280;67783;51.656;16.106;2023-04-25T14:23:25;100961.95;;;15.01;50.33
77537;BME280;67783;51.656;16.106;2023-04-25T14:26:26;100956.42;;;15.03;50.84
77537;BME280;67783;51.656;16.106;2023-04-25T14:29:28;100970.63;;;15.05;50.36
77537;BME280;67783;51.656;16.106;2023-04-25T14:32:29;100956.82;;;14.98;50.53
77537;BME280;67783;51.656;16.106;2023-04-25T14:38:25;100964.52;;;15.03;50.22
77537;BME280;67783;51.656;16.106;2023-04-25T14:41:28;100962.41;;;15.06;50.87
77537;BME280;67783;51.656;16.106;2023-04-25T14:44:29;100963.97;;;15.09;50.13
77537;BME280;67783;51.656;16.106;2023-04-25T14:47:31;100972.08;;;15.09;50.51
77537;BME280;67783;51.656;16.106;2023-04-25T14:50:33;100978.91;;;15.13;50.11
77537;BME280;67783;51.656;16.106;2023-04-25T14:53:34;100974.96;;;15.17;49.99
77537;BME280;67783;51.656;16.106;2023-04-25T14:56:40;100977.53;;;15.18;50.86
77537;BME280;67783;51.656;16.106;2023-04-25T14:59:41;100978.78;;;15.14;49.98
77537;BME280;67783;51.656;16.106;2023-04-25T15:02:43;100981.71;;;15.02;50.40
77537;BME280;67783;51.656;16.106;2023-04-25T15:05:45;100986.63;;;14.97;50.38
77537;BME280;67783;51.656;16.106;2023-04-25T15:08:46;100994.74;;;14.97;50.47
77537;BME280;67783;51.656;16.106;2023-04-25T15:11:48;100996.97;;;14.92;49.00
77537;BME280;67783;51.656;16.106;2023-04-25T15:14:50;100997.36;;;14.66;48.45
77537;BME280;67783;51.656;16.106;2023-04-25T15:17:55;101004.84;;;14.42;46.89
77537;BME280;67783;51.656;16.106;2023-04-25T15:20:57;100978.16;;;14.17;48.66
77537;BME280;67783;51.656;16.106;2023-04-25T15:23:59;101010.53;;;14.17;48.30
77537;BME280;67783;51.656;16.106;2023-04-25T15:27:01;101010.07;;;14.12;48.76
77537;BME280;67783;51.656;16.106;2023-04-25T15:30:09;101013.75;;;14.00;48.77
77537;BME280;67783;51.656;16.106;2023-04-25T15:33:17;100994.95;;;13.77;48.37
77537;BME280;67783;51.656;16.106;2023-04-25T15:36:19;101000.20;;;13.79;48.64
77537;BME280;67783;51.656;16.106;2023-04-25T15:39:22;101016.73;;;13.85;48.29
77537;BME280;67783;51.656;16.106;2023-04-25T15:42:24;101021.87;;;13.88;48.36
77537;BME280;67783;51.656;16.106;2023-04-25T15:45:26;101011.09;;;13.88;48.01
77537;BME280;67783;51.656;16.106;2023-04-25T15:48:36;101013.53;;;13.92;47.03
77537;BME280;67783;51.656;16.106;2023-04-25T15:51:37;101021.72;;;14.01;47.86
77537;BME280;67783;51.656;16.106;2023-04-25T15:54:39;101020.38;;;14.07;47.26
77537;BME280;67783;51.656;16.106;2023-04-25T15:57:41;101017.16;;;14.13;47.58
77537;BME280;67783;51.656;16.106;2023-04-25T16:00:42;101004.69;;;14.12;46.97
77537;BME280;67783;51.656;16.106;2023-04-25T16:03:57;101025.24;;;14.13;46.14
77537;BME280;67783;51.656;16.106;2023-04-25T16:06:58;101019.73;;;14.14;47.18